Time;durP1;ratioP1;P1;durP2;ratioP2;P2;SDS_P1;SDS_P2;PMS_P1;PMS_P2;Temp;Humidity;BMP_temperature;BMP_pressure;BME280_temperature;BME280_humidity;BME280_pressure;Samples;Min_cycle;Max_cycle;Signal;HPM_P1;HPM_P2
2024/03/28 00:01:31;;;;;;;1.83;1.45;;;;;;;9.60;57.07;94493.09;5024256;28;20200;-86
2024/03/28 00:03:56;;;;;;;2.50;1.73;;;;;;;9.59;57.10;94490.78;5025185;28;20024;-87
2024/03/28 00:06:21;;;;;;;2.03;1.23;;;;;;;9.64;57.16;94485.44;5039077;28;20028;-86
2024/03/28 00:08:47;;;;;;;2.30;1.58;;;;;;;9.57;57.08;94478.84;5032134;28;20491;-85
2024/03/28 00:11:12;;;;;;;2.17;1.75;;;;;;;9.55;57.60;94482.84;5022198;28;20484;-83
2024/03/28 00:13:37;;;;;;;3.35;1.60;;;;;;;9.51;57.30;94484.50;5029381;28;20025;-86
2024/03/28 00:16:03;;;;;;;2.30;1.70;;;;;;;9.47;57.04;94475.78;5037914;28;20237;-84
2024/03/28 00:18:31;;;;;;;2.38;1.88;;;;;;;9.53;57.71;94482.38;5041910;28;21235;-86
2024/03/28 00:21:02;;;;;;;2.22;1.50;;;;;;;9.45;57.38;94476.09;5047407;28;20032;-83
2024/03/28 00:23:27;;;;;;;2.35;1.83;;;;;;;9.34;57.46;94473.03;5038952;28;20048;-85
2024/03/28 00:25:54;;;;;;;2.45;1.70;;;;;;;9.35;57.70;94474.53;5053062;28;20068;-86
2024/03/28 00:28:19;;;;;;;1.90;1.45;;;;;;;9.26;57.54;94475.59;5027237;28;20048;-85
2024/03/28 00:30:45;;;;;;;3.20;1.95;;;;;;;9.18;58.04;94483.06;5022738;28;20044;-86
2024/03/28 00:33:11;;;;;;;1.60;1.40;;;;;;;9.18;57.49;94477.88;5025705;28;20204;-86
2024/03/28 00:35:44;;;;;;;1.42;1.33;;;;;;;9.19;58.04;94479.38;5017514;28;20496;-84
2024/03/28 00:38:09;;;;;;;2.75;1.63;;;;;;;9.17;57.65;94478.94;5029081;28;20033;-85
2024/03/28 00:40:35;;;;;;;2.38;1.90;;;;;;;9.10;57.06;94478.59;5010436;28;20036;-86
2024/03/28 00:43:01;;;;;;;2.63;1.55;;;;;;;9.00;57.67;94476.28;5009656;28;20025;-83
2024/03/28 00:45:26;;;;;;;1.42;1.25;;;;;;;9.03;57.62;94480.09;5006131;28;20440;-85
2024/03/28 00:47:51;;;;;;;2.22;1.63;;;;;;;8.97;57.54;94482.06;5034855;28;20041;-85
2024/03/28 00:50:17;;;;;;;2.10;1.38;;;;;;;8.98;57.56;94473.22;5006480;28;20025;-83
2024/03/28 00:52:42;;;;;;;1.80;1.10;;;;;;;8.91;57.70;94478.06;5019360;28;20056;-86
2024/03/28 00:55:08;;;;;;;2.35;1.48;;;;;;;8.86;57.67;94480.78;5050045;28;20028;-86
2024/03/28 00:57:33;;;;;;;2.55;1.55;;;;;;;8.93;56.98;94484.50;5023790;28;20029;-83
2024/03/28 00:59:58;;;;;;;1.90;1.42;;;;;;;8.77;57.00;94470.38;5009442;28;20029;-78
2024/03/28 01:02:24;;;;;;;1.80;1.52;;;;;;;8.73;56.81;94467.63;5008444;28;20039;-78
2024/03/28 01:04:50;;;;;;;2.33;1.10;;;;;;;8.77;57.82;94476.34;5033331;28;20414;-78
2024/03/28 01:07:15;;;;;;;2.92;1.65;;;;;;;8.77;57.41;94473.75;5032684;28;20032;-78
2024/03/28 01:09:41;;;;;;;1.73;1.30;;;;;;;8.70;57.71;94470.81;5060547;28;20039;-77
2024/03/28 01:12:06;;;;;;;1.67;1.23;;;;;;;8.62;57.15;94463.78;5019834;28;20072;-78
2024/03/28 01:14:31;;;;;;;1.58;1.23;;;;;;;8.61;56.75;94464.81;5024986;28;20401;-78
2024/03/28 01:16:57;;;;;;;2.65;1.45;;;;;;;8.60;58.02;94469.25;5033273;28;20094;-78
2024/03/28 01:19:22;;;;;;;2.40;1.33;;;;;;;8.54;58.11;94472.28;5067432;28;20039;-78
2024/03/28 01:21:48;;;;;;;1.90;1.20;;;;;;;8.50;57.42;94455.75;5015262;28;20067;-78
2024/03/28 01:24:13;;;;;;;1.30;1.10;;;;;;;8.53;57.09;94466.31;5032345;28;20029;-78
2024/03/28 01:26:38;;;;;;;1.42;1.20;;;;;;;8.47;57.89;94469.34;5022840;28;20046;-78
2024/03/28 01:29:04;;;;;;;1.77;1.10;;;;;;;8.34;58.00;94453.50;5033823;28;20055;-78
2024/03/28 01:31:29;;;;;;;2.10;1.45;;;;;;;8.47;57.08;94458.97;5046174;28;20499;-78
2024/03/28 01:33:55;;;;;;;2.85;1.48;;;;;;;8.44;57.43;94455.13;5039143;28;20036;-78
2024/03/28 01:36:20;;;;;;;2.28;1.58;;;;;;;8.51;57.89;94460.66;5018277;28;20496;-78
2024/03/28 01:38:46;;;;;;;1.90;1.48;;;;;;;8.51;57.12;94455.47;5061305;28;20507;-78
2024/03/28 01:41:11;;;;;;;3.22;2.05;;;;;;;8.52;58.00;94456.25;5061997;28;20116;-78
2024/03/28 01:43:39;;;;;;;2.00;1.77;;;;;;;8.57;57.16;94454.28;5016765;28;20039;-77
2024/03/28 01:46:04;;;;;;;2.65;1.45;;;;;;;8.48;57.46;94445.69;5049637;28;20036;-77
2024/03/28 01:48:30;;;;;;;2.47;1.30;;;;;;;8.51;57.19;94446.94;5042570;28;20047;-78
2024/03/28 01:50:55;;;;;;;2.08;1.63;;;;;;;8.51;57.70;94439.91;5044988;28;20034;-77
2024/03/28 01:53:20;;;;;;;1.92;1.38;;;;;;;8.52;57.35;94445.88;5019918;28;20389;-77
2024/03/28 01:55:46;;;;;;;1.60;1.20;;;;;;;8.48;57.00;94432.72;5030118;28;20047;-78
2024/03/28 01:58:12;;;;;;;2.17;1.30;;;;;;;8.44;56.92;94429.22;5018397;28;20037;-78
2024/03/28 02:00:37;;;;;;;1.30;1.10;;;;;;;8.42;56.59;94421.72;5069044;28;20387;-78
2024/03/28 02:03:03;;;;;;;2.05;1.40;;;;;;;8.50;56.73;94429.84;5049300;28;20032;-77
2024/03/28 02:06:04;;;;;;;1.95;1.63;;;;;;;8.65;56.80;94429.44;5060966;28;20123;-78
2024/03/28 02:08:30;;;;;;;2.60;1.20;;;;;;;8.51;56.67;94424.34;5055087;28;20024;-78
2024/03/28 02:10:56;;;;;;;1.48;1.10;;;;;;;8.54;56.72;94423.00;5052397;28;20024;-78
2024/03/28 02:13:21;;;;;;;2.25;1.13;;;;;;;8.45;56.42;94412.59;5042612;28;20123;-78
2024/03/28 02:15:47;;;;;;;2.17;1.15;;;;;;;8.43;56.87;94415.47;5036589;28;20071;-78
2024/03/28 02:18:12;;;;;;;2.05;1.10;;;;;;;8.43;56.34;94405.13;5026351;28;20476;-78
2024/03/28 02:20:37;;;;;;;5.15;1.50;;;;;;;8.30;57.31;94408.53;5037364;28;20056;-78
2024/03/28 02:23:03;;;;;;;2.45;1.05;;;;;;;8.29;56.56;94406.22;5044209;28;20036;-78
2024/03/28 02:25:28;;;;;;;1.38;1.05;;;;;;;8.21;56.53;94405.88;5049410;28;20029;-78
2024/03/28 02:27:54;;;;;;;2.10;1.00;;;;;;;8.10;56.99;94404.59;5035791;28;20071;-77
2024/03/28 02:30:19;;;;;;;1.65;1.10;;;;;;;8.07;57.43;94400.78;5041096;28;20059;-78
2024/03/28 02:32:44;;;;;;;3.15;1.20;;;;;;;8.03;57.19;94402.41;5042848;28;20025;-78
2024/03/28 02:35:10;;;;;;;1.73;1.27;;;;;;;7.96;57.18;94398.72;5027782;28;20032;-78
2024/03/28 02:37:35;;;;;;;2.40;1.30;;;;;;;7.90;57.35;94405.88;5049779;28;20032;-78
2024/03/28 02:40:02;;;;;;;1.85;1.10;;;;;;;7.84;58.06;94407.03;5051754;28;20028;-78
2024/03/28 02:42:30;;;;;;;1.30;0.90;;;;;;;7.78;57.64;94400.44;5018139;28;20507;-78
2024/03/28 02:44:55;;;;;;;2.38;1.25;;;;;;;7.72;58.63;94404.22;5018692;28;20028;-78
2024/03/28 02:47:20;;;;;;;1.50;0.95;;;;;;;7.77;57.74;94404.09;5052286;28;20455;-78
2024/03/28 02:49:46;;;;;;;1.75;1.00;;;;;;;7.72;57.98;94394.59;5041569;28;20116;-78
2024/03/28 02:52:12;;;;;;;1.52;1.30;;;;;;;7.75;58.28;94399.22;5052177;28;20025;-78
2024/03/28 02:54:37;;;;;;;1.83;1.08;;;;;;;7.79;58.29;94407.16;5035273;28;20029;-78
2024/03/28 02:57:03;;;;;;;1.20;1.00;;;;;;;7.81;57.74;94394.66;5043889;28;20028;-78
2024/03/28 02:59:29;;;;;;;1.52;0.85;;;;;;;7.86;57.81;94397.91;5030536;28;20051;-77
2024/03/28 03:01:55;;;;;;;1.50;0.93;;;;;;;7.95;58.13;94399.78;5045929;28;20089;-78
2024/03/28 03:04:20;;;;;;;2.15;1.10;;;;;;;7.91;58.64;94391.06;5038910;28;20477;-78
2024/03/28 03:06:45;;;;;;;1.90;1.30;;;;;;;7.96;57.76;94389.13;5026914;28;20033;-77
2024/03/28 03:09:11;;;;;;;1.70;1.27;;;;;;;8.05;57.88;94391.75;5029492;28;20481;-78
2024/03/28 03:11:36;;;;;;;1.50;1.20;;;;;;;8.00;58.15;94382.31;5027281;28;20066;-78
2024/03/28 03:14:02;;;;;;;1.35;1.10;;;;;;;8.12;57.77;94396.53;5030990;28;20126;-77
2024/03/28 03:16:29;;;;;;;1.50;1.30;;;;;;;8.13;57.36;94385.09;5000567;28;20033;-78
2024/03/28 03:18:55;;;;;;;2.25;1.10;;;;;;;8.16;57.63;94384.53;5046612;28;20092;-78
2024/03/28 03:21:21;;;;;;;1.55;1.25;;;;;;;8.22;56.90;94371.13;5051999;28;20119;-77
2024/03/28 03:23:49;;;;;;;2.05;1.10;;;;;;;8.30;56.44;94382.59;5025670;28;20032;-77
2024/03/28 03:26:24;;;;;;;2.70;0.90;;;;;;;8.34;56.79;94386.13;5022162;28;20024;-78
2024/03/28 03:34:37;;;;;;;2.38;0.88;;;;;;;8.25;55.47;94382.72;5048500;28;20119;-78
2024/03/28 03:37:23;;;;;;;1.70;1.35;;;;;;;8.33;55.50;94381.22;5010744;28;20051;-78
2024/03/28 03:39:56;;;;;;;2.22;0.93;;;;;;;8.41;54.89;94378.69;5034829;28;20044;-77
2024/03/28 03:42:21;;;;;;;1.40;0.82;;;;;;;8.32;55.77;94367.50;5057537;28;20381;-77
2024/03/28 03:44:47;;;;;;;1.88;1.05;;;;;;;8.38;55.70;94370.72;5006909;28;20090;-78
2024/03/28 03:47:13;;;;;;;1.67;0.77;;;;;;;8.30;55.84;94363.69;5015500;28;20094;-78
2024/03/28 03:49:43;;;;;;;1.42;1.13;;;;;;;8.21;55.62;94345.53;5051672;28;20026;-78
2024/03/28 03:52:15;;;;;;;0.80;0.60;;;;;;;8.29;54.60;94337.00;5025803;28;20044;-78
2024/03/28 03:54:41;;;;;;;2.50;0.70;;;;;;;8.30;54.44;94335.94;5030868;28;20587;-78
2024/03/28 03:57:07;;;;;;;1.77;0.70;;;;;;;8.38;54.23;94337.03;5031722;28;20127;-77
2024/03/28 03:59:33;;;;;;;1.50;0.90;;;;;;;8.38;53.75;94332.63;5045001;28;20029;-78
2024/03/28 04:01:59;;;;;;;1.38;0.75;;;;;;;8.27;54.56;94326.16;5014604;28;20610;-78
2024/03/28 04:04:24;;;;;;;0.93;0.70;;;;;;;8.29;53.41;94318.09;5032205;28;20024;-78
2024/03/28 04:06:49;;;;;;;2.05;0.63;;;;;;;8.19;54.01;94319.91;5052121;28;20044;-77
2024/03/28 04:09:15;;;;;;;1.30;0.60;;;;;;;8.20;54.51;94320.66;5022230;28;20036;-77
2024/03/28 04:11:40;;;;;;;0.80;0.47;;;;;;;8.24;53.94;94318.97;5045290;28;20462;-78
2024/03/28 04:14:06;;;;;;;1.48;0.90;;;;;;;8.23;53.11;94310.44;5043200;28;20090;-78
2024/03/28 04:16:31;;;;;;;1.15;0.60;;;;;;;8.29;54.12;94312.91;5045133;28;20098;-78
2024/03/28 04:18:56;;;;;;;1.50;0.68;;;;;;;8.22;53.65;94308.91;5039819;28;20032;-77
2024/03/28 04:21:23;;;;;;;1.35;0.88;;;;;;;8.25;53.25;94299.78;5034177;28;20040;-77
2024/03/28 04:23:48;;;;;;;1.15;0.70;;;;;;;8.32;53.14;94301.94;5023853;28;20428;-77
2024/03/28 04:26:13;;;;;;;1.17;0.73;;;;;;;8.37;52.92;94297.38;5023558;28;20059;-77
2024/03/28 04:28:39;;;;;;;1.52;0.50;;;;;;;8.30;52.88;94284.09;5052287;28;20046;-78
2024/03/28 04:31:04;;;;;;;0.85;0.60;;;;;;;8.29;53.58;94287.75;5035020;28;20030;-83
2024/03/28 04:33:30;;;;;;;1.42;0.63;;;;;;;8.35;53.51;94281.38;5032701;28;20047;-85
2024/03/28 04:35:56;;;;;;;0.70;0.40;;;;;;;8.29;53.13;94287.75;5035343;28;20040;-83
2024/03/28 04:38:22;;;;;;;1.38;0.50;;;;;;;8.29;52.97;94286.97;5027847;28;20020;-85
2024/03/28 04:40:47;;;;;;;0.70;0.50;;;;;;;8.25;53.11;94286.81;5044488;28;20577;-86
2024/03/28 04:43:13;;;;;;;0.88;0.60;;;;;;;8.24;53.55;94280.09;5050993;28;20050;-87
2024/03/28 04:45:38;;;;;;;1.02;0.65;;;;;;;8.23;52.53;94278.59;5046605;28;20325;-84
2024/03/28 04:48:04;;;;;;;0.60;0.40;;;;;;;8.27;53.19;94284.69;5049610;28;20046;-84
2024/03/28 04:50:29;;;;;;;1.55;0.50;;;;;;;8.29;52.18;94287.75;5009816;28;20039;-85
2024/03/28 04:52:55;;;;;;;0.90;0.60;;;;;;;8.41;52.21;94295.72;5025025;28;20031;-84
2024/03/28 04:55:20;;;;;;;1.20;0.70;;;;;;;8.34;53.38;94279.81;5008929;28;20033;-84
2024/03/28 04:57:46;;;;;;;2.47;0.50;;;;;;;8.40;52.63;94281.22;5017293;28;20087;-86
2024/03/28 05:00:12;;;;;;;0.93;0.50;;;;;;;8.58;52.12;94291.66;5035218;28;20400;-86
2024/03/28 05:02:37;;;;;;;1.80;0.60;;;;;;;8.69;52.62;94295.50;5041150;28;20099;-78
2024/03/28 05:05:08;;;;;;;0.57;0.40;;;;;;;8.72;52.93;94281.94;5014282;28;20194;-78
2024/03/28 05:07:37;;;;;;;0.30;0.30;;;;;;;8.88;52.08;94294.47;5019165;28;20040;-77
2024/03/28 05:10:07;;;;;;;0.60;0.40;;;;;;;8.93;52.22;94294.31;5042696;28;20035;-78
2024/03/28 05:12:32;;;;;;;1.02;0.40;;;;;;;9.01;51.62;94298.72;5058584;28;20489;-78
2024/03/28 05:14:58;;;;;;;1.00;0.50;;;;;;;9.13;51.12;94288.53;5034900;28;20067;-78
2024/03/28 05:17:26;;;;;;;1.00;0.60;;;;;;;9.16;51.75;94292.34;5032768;28;20065;-77
2024/03/28 05:19:51;;;;;;;1.45;0.57;;;;;;;9.21;50.54;94289.59;5033219;28;20048;-78
2024/03/28 05:22:16;;;;;;;1.35;0.52;;;;;;;9.38;50.13;94297.34;5046366;28;20401;-78
2024/03/28 05:24:42;;;;;;;0.63;0.30;;;;;;;9.49;50.11;94300.41;5047660;28;20210;-78
2024/03/28 05:27:07;;;;;;;1.60;0.50;;;;;;;9.60;49.70;94300.84;5044025;28;20036;-78
2024/03/28 05:29:32;;;;;;;0.68;0.47;;;;;;;9.67;49.72;94301.13;5043666;28;20042;-78
2024/03/28 05:31:58;;;;;;;0.40;0.40;;;;;;;9.61;50.68;94291.22;5028960;28;20020;-77
2024/03/28 05:34:24;;;;;;;1.02;0.57;;;;;;;9.72;49.54;94297.63;5047571;28;20162;-78
2024/03/28 05:36:49;;;;;;;0.70;0.40;;;;;;;9.81;49.82;94308.75;5036279;28;20045;-78
2024/03/28 05:39:15;;;;;;;0.38;0.30;;;;;;;9.78;49.12;94311.97;5017934;28;20052;-78
2024/03/28 05:41:40;;;;;;;2.92;0.50;;;;;;;9.92;48.86;94312.56;5032599;28;20041;-78
2024/03/28 05:44:06;;;;;;;0.85;0.50;;;;;;;9.94;49.20;94315.59;5016931;28;20093;-78
2024/03/28 05:46:32;;;;;;;0.65;0.57;;;;;;;9.81;49.08;94318.38;5017812;28;20090;-77
2024/03/28 05:48:58;;;;;;;1.67;0.40;;;;;;;9.86;50.40;94324.19;5018543;28;20036;-77
2024/03/28 05:51:23;;;;;;;0.60;0.50;;;;;;;9.68;50.71;94330.47;5028473;28;20027;-77
2024/03/28 05:53:49;;;;;;;0.60;0.30;;;;;;;9.96;50.98;94337.94;5010535;28;20532;-77
2024/03/28 05:56:18;;;;;;;0.77;0.40;;;;;;;9.80;53.40;94356.59;5021809;28;20032;-76
2024/03/28 05:58:47;;;;;;;0.90;0.40;;;;;;;9.05;57.42;94348.97;5026042;28;20051;-78
2024/03/28 06:01:13;;;;;;;0.73;0.40;;;;;;;9.13;58.38;94340.44;5047648;28;20028;-77
2024/03/28 06:03:39;;;;;;;0.88;0.40;;;;;;;9.04;58.19;94342.25;5036025;28;20033;-78
2024/03/28 06:06:05;;;;;;;1.17;0.60;;;;;;;8.95;58.95;94325.91;5029964;28;20032;-79
2024/03/28 06:08:31;;;;;;;1.05;0.30;;;;;;;8.76;60.19;94334.72;5049735;28;20046;-77
2024/03/28 06:10:56;;;;;;;0.93;0.30;;;;;;;8.92;60.60;94329.88;5021331;28;20040;-79
2024/03/28 06:13:22;;;;;;;0.90;0.40;;;;;;;8.78;61.24;94330.00;5047543;28;20055;-79
2024/03/28 06:15:49;;;;;;;1.85;0.40;;;;;;;8.93;60.52;94318.44;5009643;28;20067;-78
2024/03/28 06:18:15;;;;;;;1.08;0.60;;;;;;;8.90;62.11;94326.81;5021191;28;20116;-79
2024/03/28 06:20:40;;;;;;;1.70;0.60;;;;;;;8.85;61.56;94332.16;5066220;28;20401;-79
2024/03/28 06:23:06;;;;;;;0.90;0.43;;;;;;;8.97;62.08;94331.56;5058559;28;20032;-79
2024/03/28 06:25:37;;;;;;;1.10;0.60;;;;;;;9.00;61.49;94329.13;5030987;28;20064;-79
2024/03/28 06:28:03;;;;;;;0.98;0.40;;;;;;;8.90;61.52;94328.66;5037571;28;20032;-79
2024/03/28 06:30:30;;;;;;;1.23;0.40;;;;;;;8.81;63.14;94333.84;5030509;28;20072;-79
2024/03/28 06:32:56;;;;;;;1.20;0.40;;;;;;;8.84;62.22;94322.81;5043810;28;20063;-79
2024/03/28 06:35:22;;;;;;;0.80;0.70;;;;;;;8.84;62.20;94335.03;5033564;28;20064;-79
2024/03/28 06:37:50;;;;;;;0.90;0.55;;;;;;;8.77;63.62;94333.69;5014289;28;20044;-79
2024/03/28 06:40:15;;;;;;;1.40;0.68;;;;;;;8.85;62.66;94329.56;5041272;28;20036;-80
2024/03/28 06:42:41;;;;;;;1.50;0.65;;;;;;;8.84;63.06;94325.41;5050259;28;20393;-80
2024/03/28 06:45:08;;;;;;;2.15;0.63;;;;;;;8.93;63.31;94330.66;5023336;28;20042;-80
2024/03/28 06:47:33;;;;;;;0.82;0.70;;;;;;;8.87;63.10;94318.88;5018434;28;20425;-79
2024/03/28 06:49:59;;;;;;;0.95;0.70;;;;;;;8.92;63.65;94326.50;5034615;28;20039;-80
2024/03/28 06:52:24;;;;;;;0.93;0.45;;;;;;;8.87;63.11;94321.47;5038871;28;20087;-85
2024/03/28 06:54:50;;;;;;;1.05;0.57;;;;;;;9.00;63.41;94344.69;5029022;28;20032;-83
2024/03/28 06:57:16;;;;;;;2.38;0.55;;;;;;;8.96;63.82;94340.41;5031056;28;20491;-85
2024/03/28 06:59:41;;;;;;;0.90;0.70;;;;;;;9.02;63.47;94334.00;5043707;28;20158;-83
2024/03/28 07:02:07;;;;;;;1.13;0.98;;;;;;;9.05;63.22;94351.56;5019479;28;20032;-84
2024/03/28 07:04:32;;;;;;;0.80;0.57;;;;;;;8.96;64.65;94351.56;5056643;28;20471;-84
2024/03/28 07:06:58;;;;;;;1.17;0.75;;;;;;;8.97;64.56;94357.50;5039408;28;20040;-85
2024/03/28 07:09:23;;;;;;;1.23;0.50;;;;;;;8.99;64.46;94353.53;5028265;28;20034;-84
2024/03/28 07:11:48;;;;;;;0.40;0.40;;;;;;;9.07;64.36;94362.41;5023909;28;20031;-86
2024/03/28 07:14:16;;;;;;;1.10;0.60;;;;;;;9.14;64.01;94367.91;5027005;28;20510;-83
2024/03/28 07:16:42;;;;;;;0.82;0.50;;;;;;;9.16;64.37;94385.78;5016711;28;20037;-83
2024/03/28 07:19:07;;;;;;;1.67;0.65;;;;;;;9.14;64.39;94399.06;5039248;28;20111;-84
2024/03/28 07:21:32;;;;;;;1.80;0.50;;;;;;;9.22;64.06;94405.34;5021219;28;20540;-86
2024/03/28 07:23:58;;;;;;;1.48;0.50;;;;;;;9.14;64.79;94408.69;5025029;28;20023;-86
2024/03/28 07:26:23;;;;;;;2.25;0.73;;;;;;;9.26;64.33;94395.88;5055190;28;20408;-84
2024/03/28 07:28:48;;;;;;;0.65;0.50;;;;;;;9.37;64.59;94404.91;5048590;28;20546;-83
2024/03/28 07:31:14;;;;;;;0.95;0.50;;;;;;;9.48;63.85;94418.34;5044594;28;20039;-84
2024/03/28 07:33:39;;;;;;;1.52;0.47;;;;;;;9.48;64.29;94407.97;5020459;28;20056;-83
2024/03/28 07:36:06;;;;;;;1.70;0.50;;;;;;;9.55;64.20;94402.31;5038007;28;20038;-85
2024/03/28 07:38:31;;;;;;;1.63;0.75;;;;;;;9.46;64.36;94414.50;5024799;28;20029;-83
2024/03/28 07:40:57;;;;;;;0.85;0.40;;;;;;;9.53;64.88;94423.38;5020346;28;20546;-82
2024/03/28 07:43:22;;;;;;;1.35;0.70;;;;;;;9.48;65.09;94423.53;5021620;28;20462;-83
2024/03/28 07:45:48;;;;;;;1.92;0.73;;;;;;;9.63;64.40;94430.13;5064573;28;20028;-82
2024/03/28 07:48:13;;;;;;;0.98;0.63;;;;;;;9.27;65.74;94431.16;5016203;28;20551;-83
2024/03/28 07:50:38;;;;;;;2.47;0.57;;;;;;;9.52;64.69;94424.44;5047003;28;20027;-85
2024/03/28 07:53:04;;;;;;;0.88;0.70;;;;;;;9.47;65.42;94401.22;5027480;28;20025;-84
2024/03/28 07:55:29;;;;;;;1.40;0.70;;;;;;;9.43;65.73;94378.78;5016026;28;20488;-83
2024/03/28 07:57:55;;;;;;;2.00;1.15;;;;;;;9.71;66.17;94353.25;5032693;28;20033;-83
2024/03/28 08:00:23;;;;;;;2.20;1.05;;;;;;;10.04;65.82;94345.69;5015942;28;20029;-87
2024/03/28 08:02:49;;;;;;;3.50;0.80;;;;;;;10.07;65.30;94349.50;5031030;28;20025;-78
2024/03/28 08:05:17;;;;;;;1.20;1.00;;;;;;;10.00;65.27;94354.41;5034003;28;20032;-83
2024/03/28 08:07:44;;;;;;;3.13;0.60;;;;;;;10.21;64.68;94370.88;5030481;28;20123;-83
2024/03/28 08:10:09;;;;;;;2.35;1.00;;;;;;;10.38;63.61;94384.94;5035621;28;20175;-84
2024/03/28 08:12:36;;;;;;;0.93;0.50;;;;;;;10.23;64.86;94412.16;5026076;28;20114;-84
2024/03/28 08:15:02;;;;;;;0.88;0.70;;;;;;;10.04;64.57;94421.09;5038655;28;20114;-84
2024/03/28 08:17:28;;;;;;;1.45;0.70;;;;;;;10.11;64.66;94459.63;5045326;28;20032;-83
2024/03/28 08:19:54;;;;;;;1.77;0.88;;;;;;;10.02;64.75;94474.44;5043473;28;20516;-83
2024/03/28 08:22:19;;;;;;;1.67;0.57;;;;;;;10.15;64.41;94499.53;5052773;28;20049;-83
2024/03/28 08:24:47;;;;;;;1.10;0.70;;;;;;;9.89;65.08;94500.28;5028281;28;20080;-83
2024/03/28 08:27:13;;;;;;;3.35;0.73;;;;;;;10.09;64.80;94498.13;5035786;28;20082;-82
2024/03/28 08:29:38;;;;;;;0.98;0.70;;;;;;;10.13;64.51;94493.88;5012857;28;20028;-84
2024/03/28 08:32:04;;;;;;;1.05;0.60;;;;;;;10.16;64.79;94482.06;5041966;28;20020;-84
2024/03/28 08:34:29;;;;;;;1.83;0.82;;;;;;;10.09;64.18;94480.72;5028579;28;20044;-83
2024/03/28 08:36:54;;;;;;;0.70;0.70;;;;;;;10.10;64.58;94486.69;5046982;28;20535;-84
2024/03/28 08:39:24;;;;;;;0.75;0.57;;;;;;;9.98;65.52;94504.72;5033912;28;20072;-83
2024/03/28 08:41:56;;;;;;;0.68;0.60;;;;;;;10.05;65.65;94515.44;5024496;28;20024;-82
2024/03/28 08:44:22;;;;;;;2.17;0.70;;;;;;;10.27;64.77;94520.47;5021711;28;20075;-82
2024/03/28 08:46:48;;;;;;;1.33;0.77;;;;;;;10.21;64.65;94542.50;5008718;28;20064;-84
2024/03/28 08:49:16;;;;;;;1.60;0.80;;;;;;;10.34;65.01;94546.03;5031961;28;20131;-83
2024/03/28 08:51:42;;;;;;;1.25;0.55;;;;;;;10.12;64.89;94552.13;5038736;28;20033;-83
2024/03/28 08:54:12;;;;;;;0.90;0.70;;;;;;;10.03;64.94;94557.31;5039536;28;20044;-82
2024/03/28 08:56:38;;;;;;;1.40;0.90;;;;;;;9.96;65.26;94561.47;5009151;28;20039;-83
2024/03/28 08:59:04;;;;;;;0.80;0.60;;;;;;;10.20;64.57;94569.56;5016706;28;20033;-83
2024/03/28 09:01:30;;;;;;;0.80;0.68;;;;;;;10.32;64.73;94574.19;5002019;28;20033;-83
2024/03/28 09:03:56;;;;;;;1.33;0.50;;;;;;;10.17;64.83;94572.78;5035256;28;20552;-83
2024/03/28 09:06:22;;;;;;;1.30;0.50;;;;;;;9.87;65.98;94570.00;5034507;28;20033;-83
2024/03/28 09:08:48;;;;;;;0.77;0.57;;;;;;;9.99;65.06;94587.59;5029435;28;20033;-81
2024/03/28 09:11:15;;;;;;;1.27;0.40;;;;;;;10.14;64.31;94594.19;5027414;28;20041;-83
2024/03/28 09:13:41;;;;;;;0.65;0.40;;;;;;;10.26;63.94;94612.56;5018261;28;20036;-78
2024/03/28 09:16:07;;;;;;;0.60;0.47;;;;;;;10.37;64.00;94610.47;5061047;28;20048;-79
2024/03/28 09:18:33;;;;;;;1.17;0.40;;;;;;;10.34;63.80;94631.09;5013969;28;20448;-78
2024/03/28 09:21:00;;;;;;;0.60;0.47;;;;;;;10.33;63.49;94632.16;5023017;28;20029;-79
2024/03/28 09:23:25;;;;;;;1.88;0.50;;;;;;;10.39;63.72;94644.72;5032315;28;20086;-80
2024/03/28 09:25:51;;;;;;;0.65;0.50;;;;;;;10.33;63.41;94653.72;5027113;28;20033;-80
2024/03/28 09:28:18;;;;;;;0.70;0.40;;;;;;;10.32;63.78;94656.66;5012643;28;20175;-78
2024/03/28 09:30:43;;;;;;;1.38;0.45;;;;;;;10.29;63.74;94673.59;5044494;28;20487;-80
2024/03/28 09:33:09;;;;;;;0.47;0.30;;;;;;;10.12;63.96;94682.13;5034921;28;20035;-78
2024/03/28 09:35:35;;;;;;;1.23;0.35;;;;;;;9.86;64.89;94659.41;5033391;28;20366;-78
2024/03/28 09:38:00;;;;;;;0.25;0.20;;;;;;;9.56;64.54;94648.78;5028148;28;20496;-79
2024/03/28 09:40:26;;;;;;;0.28;0.10;;;;;;;9.40;63.80;94659.84;5021100;28;20133;-79
2024/03/28 09:42:52;;;;;;;0.20;0.20;;;;;;;9.92;64.47;94655.63;5038604;28;20025;-78
2024/03/28 09:45:22;;;;;;;0.85;0.20;;;;;;;10.01;64.56;94658.25;5037492;28;20036;-78
2024/03/28 09:47:49;;;;;;;0.73;0.50;;;;;;;10.22;65.38;94663.63;5039910;28;20035;-79
2024/03/28 09:50:18;;;;;;;0.20;0.20;;;;;;;10.64;64.25;94653.63;5050733;28;20474;-79
2024/03/28 09:52:46;;;;;;;0.88;0.20;;;;;;;11.08;63.71;94666.59;5029557;28;20398;-79
2024/03/28 09:55:13;;;;;;;0.82;0.17;;;;;;;11.10;62.10;94655.88;5001490;28;20419;-80
2024/03/28 09:57:39;;;;;;;0.93;0.20;;;;;;;10.83;61.92;94668.13;5039921;28;20475;-78
2024/03/28 10:00:05;;;;;;;0.15;0.10;;;;;;;11.14;62.10;94665.38;5038917;28;20099;-79
2024/03/28 10:02:47;;;;;;;1.00;0.30;;;;;;;10.98;62.00;94687.72;5017957;28;20060;-78
2024/03/28 10:05:13;;;;;;;0.30;0.10;;;;;;;11.03;61.36;94701.34;5034569;28;20060;-78
2024/03/28 10:07:40;;;;;;;1.45;0.20;;;;;;;10.48;62.05;94707.16;5034215;28;20533;-78
2024/03/28 10:10:07;;;;;;;0.50;0.20;;;;;;;10.42;62.24;94734.41;5017439;28;20570;-77
2024/03/28 10:12:32;;;;;;;0.82;0.25;;;;;;;10.05;62.15;94737.16;5030610;28;20074;-79
2024/03/28 10:14:58;;;;;;;1.10;0.20;;;;;;;10.10;62.54;94765.63;5043200;28;20487;-79
2024/03/28 10:17:27;;;;;;;0.10;0.10;;;;;;;9.52;63.32;94769.16;5050554;28;20037;-78
2024/03/28 10:19:59;;;;;;;0.45;0.10;;;;;;;9.50;63.45;94785.03;5022638;28;20364;-78
2024/03/28 10:22:24;;;;;;;0.45;0.10;;;;;;;9.05;63.75;94779.03;5034312;28;20037;-79
2024/03/28 10:24:50;;;;;;;0.20;0.20;;;;;;;9.18;63.03;94786.81;5025566;28;20039;-80
2024/03/28 10:27:20;;;;;;;0.82;0.10;;;;;;;9.04;64.36;94793.84;5010575;28;20469;-83
2024/03/28 10:29:56;;;;;;;0.40;0.10;;;;;;;8.63;63.77;94789.50;5017109;28;20032;-81
2024/03/28 10:32:22;;;;;;;0.25;0.10;;;;;;;8.39;64.80;94777.50;5034195;28;20535;-80
2024/03/28 10:34:51;;;;;;;0.10;0.10;;;;;;;8.64;64.55;94780.69;5032618;28;20109;-81
2024/03/28 10:37:21;;;;;;;0.38;0.10;;;;;;;8.71;64.35;94785.47;5066714;28;20570;-81
2024/03/28 10:39:47;;;;;;;0.95;0.17;;;;;;;8.87;64.89;94747.75;5001606;28;20036;-80
2024/03/28 10:42:16;;;;;;;0.98;0.20;;;;;;;9.11;64.55;94760.47;5041670;28;20328;-82
2024/03/28 10:44:44;;;;;;;0.30;0.30;;;;;;;9.05;64.80;94753.88;5035595;28;20424;-84
2024/03/28 10:47:12;;;;;;;0.10;0.10;;;;;;;9.34;65.45;94760.50;5023589;28;20120;-82
2024/03/28 10:50:04;;;;;;;1.25;0.20;;;;;;;9.80;66.96;94767.19;5017403;28;20029;-80
2024/03/28 10:52:39;;;;;;;0.63;0.20;;;;;;;9.98;64.99;94772.47;5046292;28;20036;-82
2024/03/28 10:55:06;;;;;;;0.20;0.10;;;;;;;9.96;63.35;94779.81;5037303;28;20056;-83
2024/03/28 10:57:37;;;;;;;0.40;0.30;;;;;;;9.87;64.52;94805.72;5037602;28;20029;-84
2024/03/28 11:00:03;;;;;;;1.92;0.30;;;;;;;9.48;64.79;94797.56;5036429;28;20132;-80
2024/03/28 11:02:30;;;;;;;0.30;0.20;;;;;;;9.48;64.91;94783.81;5044352;28;20524;-83
2024/03/28 11:04:58;;;;;;;0.45;0.40;;;;;;;9.67;64.98;94776.59;5005665;28;20568;-82
2024/03/28 11:07:25;;;;;;;0.60;0.30;;;;;;;10.46;68.33;94789.94;5053694;28;20039;-81
2024/03/28 11:09:53;;;;;;;1.35;0.40;;;;;;;10.85;66.82;94798.78;5033861;28;20037;-81
2024/03/28 11:12:18;;;;;;;0.45;0.30;;;;;;;10.72;64.43;94797.81;5049289;28;20033;-83
2024/03/28 11:14:58;;;;;;;0.38;0.30;;;;;;;10.84;64.29;94792.03;5016658;28;20091;-82
2024/03/28 11:17:23;;;;;;;0.40;0.20;;;;;;;10.80;62.89;94806.72;5016949;28;20025;-83
2024/03/28 11:20:02;;;;;;;1.33;0.30;;;;;;;10.66;63.49;94802.41;5062996;28;20476;-83
2024/03/28 11:22:29;;;;;;;0.35;0.30;;;;;;;10.53;63.48;94813.69;5030458;28;20032;-83
2024/03/28 11:24:56;;;;;;;0.85;0.30;;;;;;;10.42;63.49;94822.84;5001163;28;20047;-83
2024/03/28 11:27:22;;;;;;;1.00;0.30;;;;;;;10.00;64.17;94794.47;5033362;28;20035;-81
2024/03/28 11:29:47;;;;;;;0.35;0.20;;;;;;;9.96;64.16;94811.00;5041478;28;20043;-83
2024/03/28 11:32:24;;;;;;;0.55;0.50;;;;;;;9.88;65.08;94809.88;5043077;28;20041;-83
2024/03/28 11:34:49;;;;;;;0.40;0.30;;;;;;;10.29;66.41;94814.78;5004606;28;20021;-82
2024/03/28 11:37:21;;;;;;;0.90;0.40;;;;;;;10.84;67.13;94820.66;5033156;28;20025;-81
2024/03/28 11:39:48;;;;;;;0.47;0.30;;;;;;;11.38;66.71;94828.22;5033230;28;20103;-83
2024/03/28 11:42:17;;;;;;;0.47;0.30;;;;;;;11.63;65.84;94818.84;5011133;28;20029;-83